createdAt,value
2022-09-23T00:02:52.248Z,8.50
2022-09-23T00:05:19.053Z,8.50
2022-09-23T00:07:45.865Z,8.50
2022-09-23T00:10:12.599Z,8.50
2022-09-23T00:12:39.385Z,8.50
2022-09-23T00:15:06.674Z,8.50
2022-09-23T00:17:33.424Z,8.40
2022-09-23T00:20:00.231Z,8.40
2022-09-23T00:22:26.949Z,8.40
2022-09-23T00:24:53.679Z,8.40
2022-09-23T00:27:20.481Z,8.40
2022-09-23T00:29:48.234Z,8.40
2022-09-23T00:32:14.954Z,8.30
2022-09-23T00:34:44.349Z,8.30
2022-09-23T00:37:11.111Z,8.30
2022-09-23T00:39:37.821Z,8.30
2022-09-23T00:42:04.699Z,8.30
2022-09-23T00:44:54.674Z,8.30
2022-09-23T00:50:36.254Z,8.20
2022-09-23T00:53:10.191Z,8.20
2022-09-23T00:55:45.446Z,8.20
2022-09-23T00:58:15.928Z,8.20
2022-09-23T01:00:42.782Z,8.10
2022-09-23T01:03:09.793Z,8.20
2022-09-23T01:05:36.794Z,8.10
2022-09-23T01:08:04.930Z,8.00
2022-09-23T01:10:54.206Z,8.00
2022-09-23T01:13:41.831Z,8.10
2022-09-23T01:16:46.834Z,8.00
2022-09-23T01:19:13.537Z,8.00
2022-09-23T01:22:07.572Z,8.00
2022-09-23T01:24:56.283Z,8.00
2022-09-23T01:28:00.513Z,8.00
2022-09-23T01:30:55.027Z,8.00
2022-09-23T01:33:21.827Z,7.90
2022-09-23T01:36:23.983Z,7.90
2022-09-23T01:42:05.184Z,7.90
2022-09-23T01:44:48.835Z,7.80
2022-09-23T01:50:20.088Z,7.80
2022-09-23T01:52:48.207Z,7.80
2022-09-23T01:55:36.476Z,7.70
2022-09-23T01:58:15.918Z,7.70
2022-09-23T02:01:01.033Z,7.70
2022-09-23T02:03:32.886Z,7.60
2022-09-23T02:09:16.345Z,7.60
2022-09-23T02:11:47.969Z,7.60
2022-09-23T02:14:25.692Z,7.60
2022-09-23T02:20:01.778Z,7.50
2022-09-23T02:22:32.561Z,7.50
2022-09-23T02:24:59.366Z,7.60
2022-09-23T02:30:24.288Z,7.50
2022-09-23T02:33:14.554Z,7.50
2022-09-23T02:38:28.778Z,7.50
2022-09-23T02:44:09.944Z,7.50
2022-09-23T02:46:37.113Z,7.50
2022-09-23T02:49:11.071Z,7.50
2022-09-23T02:54:28.868Z,7.40
2022-09-23T02:59:42.385Z,7.40
2022-09-23T03:08:28.895Z,7.30
2022-09-23T03:11:10.325Z,7.30
2022-09-23T03:13:39.785Z,7.30
2022-09-23T03:16:34.176Z,7.30
2022-09-23T03:19:19.241Z,7.30
2022-09-23T03:21:54.607Z,7.20
2022-09-23T03:27:16.658Z,7.20
2022-09-23T03:29:49.732Z,7.10
2022-09-23T03:32:21.757Z,7.00
2022-09-23T03:37:41.060Z,7.20
2022-09-23T03:40:20.173Z,7.10
2022-09-23T03:42:47.107Z,7.20
2022-09-23T03:45:17.112Z,7.20
2022-09-23T03:47:44.279Z,7.10
2022-09-23T03:50:11.737Z,7.10
2022-09-23T03:52:38.473Z,7.10
2022-09-23T03:55:06.594Z,7.10
2022-09-23T03:57:33.371Z,7.10
2022-09-23T04:00:00.110Z,7.10
2022-09-23T04:05:13.949Z,7.10
2022-09-23T04:10:27.577Z,7.10
2022-09-23T04:12:54.296Z,7.20
2022-09-23T04:15:21.029Z,7.10
2022-09-23T04:17:47.761Z,7.20
2022-09-23T04:20:14.561Z,7.20
2022-09-23T04:22:41.285Z,7.20
2022-09-23T04:25:08.547Z,7.30
2022-09-23T04:27:37.724Z,7.10
2022-09-23T04:30:05.127Z,7.10
2022-09-23T04:32:31.904Z,7.20
2022-09-23T04:34:58.622Z,7.10
2022-09-23T04:37:25.336Z,7.10
2022-09-23T04:39:52.060Z,7.10
2022-09-23T04:42:18.773Z,7.10
2022-09-23T04:44:45.489Z,7.10
2022-09-23T04:47:12.219Z,7.10
2022-09-23T04:49:38.965Z,7.10
2022-09-23T04:54:32.441Z,7.10
2022-09-23T04:56:59.436Z,7.10
2022-09-23T05:02:12.947Z,7.20
2022-09-23T05:04:39.718Z,7.20
2022-09-23T05:07:06.514Z,7.30
2022-09-23T05:09:33.259Z,7.30
2022-09-23T05:12:00.420Z,7.30
2022-09-23T05:14:27.147Z,7.50
2022-09-23T05:16:53.848Z,7.50
2022-09-23T05:19:20.553Z,7.60
2022-09-23T05:21:47.310Z,7.50
2022-09-23T05:24:14.130Z,7.60
2022-09-23T05:26:41.051Z,7.60
2022-09-23T05:29:08.095Z,7.70
2022-09-23T05:31:35.010Z,7.70
2022-09-23T05:34:04.393Z,7.80
2022-09-23T05:36:37.982Z,7.90
2022-09-23T05:39:06.489Z,7.80
2022-09-23T05:41:33.308Z,7.90
2022-09-23T05:44:00.118Z,8.00
2022-09-23T05:46:30.075Z,8.00
2022-09-23T05:51:44.907Z,8.00
2022-09-23T05:54:11.624Z,8.10
2022-09-23T05:56:38.414Z,8.20
2022-09-23T05:59:05.840Z,8.20
2022-09-23T06:01:35.215Z,8.30
2022-09-23T06:04:04.510Z,8.30
2022-09-23T06:06:34.112Z,8.30
2022-09-23T06:09:01.605Z,8.40
2022-09-23T06:11:32.966Z,8.50
2022-09-23T06:14:00.531Z,8.40
2022-09-23T06:19:15.710Z,8.50
2022-09-23T06:24:31.606Z,8.60
2022-09-23T06:29:45.093Z,8.60
2022-09-23T06:32:11.814Z,8.70
2022-09-23T06:34:49.111Z,8.70
2022-09-23T06:37:20.442Z,8.90
2022-09-23T06:39:47.671Z,8.70
2022-09-23T06:42:14.539Z,8.80
2022-09-23T06:44:41.249Z,8.90
2022-09-23T06:47:08.087Z,8.80
2022-09-23T06:49:34.881Z,8.90
2022-09-23T06:52:01.780Z,9.00
2022-09-23T06:54:28.506Z,9.00
2022-09-23T06:56:55.700Z,9.10
2022-09-23T06:59:22.406Z,9.00
2022-09-23T07:01:49.209Z,9.20
2022-09-23T07:04:16.083Z,9.20
2022-09-23T07:06:42.835Z,9.20
2022-09-23T07:09:09.572Z,9.30
2022-09-23T07:11:36.473Z,9.40
2022-09-23T07:14:03.307Z,9.40
2022-09-23T07:19:17.010Z,9.60
2022-09-23T07:21:43.753Z,9.80
2022-09-23T07:24:10.586Z,9.90
2022-09-23T07:26:38.612Z,9.90
2022-09-23T07:29:06.898Z,10.10
2022-09-23T07:31:39.800Z,10.10
2022-09-23T07:34:08.826Z,10.20
2022-09-23T07:36:35.622Z,10.30
2022-09-23T07:39:02.450Z,10.30
2022-09-23T07:41:30.752Z,10.40
2022-09-23T07:43:58.569Z,10.50
2022-09-23T07:46:27.640Z,10.70
2022-09-23T07:48:54.470Z,10.90
2022-09-23T07:51:24.201Z,11.00
2022-09-23T07:53:52.716Z,11.20
2022-09-23T07:56:21.316Z,11.30
2022-09-23T07:58:48.857Z,11.50
2022-09-23T08:01:15.620Z,11.60
2022-09-23T08:03:42.343Z,11.60
2022-09-23T08:06:11.716Z,12.20
2022-09-23T08:08:40.420Z,12.30
2022-09-23T08:11:08.909Z,12.20
2022-09-23T08:13:35.855Z,12.50
2022-09-23T08:16:03.028Z,12.10
2022-09-23T08:18:29.950Z,12.20
2022-09-23T08:20:56.688Z,12.50
2022-09-23T08:23:23.442Z,12.80
2022-09-23T08:25:59.426Z,13.10
2022-09-23T08:28:26.788Z,13.00
2022-09-23T08:30:53.890Z,12.90
2022-09-23T08:33:23.377Z,12.70
2022-09-23T08:35:51.529Z,12.80
2022-09-23T08:41:53.863Z,13.00
2022-09-23T08:47:41.993Z,13.10
2022-09-23T08:50:17.031Z,12.90
2022-09-23T08:52:49.476Z,13.00
2022-09-23T08:55:17.185Z,13.40
2022-09-23T08:58:23.577Z,13.50
2022-09-23T09:00:44.810Z,14.20
2022-09-23T09:03:21.370Z,14.60
2022-09-23T09:05:54.255Z,14.30
2022-09-23T09:08:30.934Z,14.50
2022-09-23T09:10:58.554Z,14.80
2022-09-23T09:13:41.044Z,14.90
2022-09-23T09:16:48.370Z,14.60
2022-09-23T09:22:19.850Z,14.90
2022-09-23T09:24:49.520Z,15.00
2022-09-23T09:27:16.249Z,15.30
2022-09-23T09:29:49.541Z,15.80
2022-09-23T09:32:40.495Z,15.90
2022-09-23T09:35:23.905Z,16.40
2022-09-23T09:37:53.253Z,16.40
2022-09-23T09:40:20.547Z,16.60
2022-09-23T09:42:50.043Z,16.50
2022-09-23T09:45:57.259Z,17.10
2022-09-23T09:48:39.779Z,16.90
2022-09-23T09:51:24.565Z,16.80
2022-09-23T09:53:51.632Z,17.90
2022-09-23T09:56:25.424Z,18.60
2022-09-23T09:59:02.042Z,18.20
2022-09-23T10:01:33.766Z,17.60
2022-09-23T10:04:29.713Z,17.30
2022-09-23T10:07:08.614Z,17.40
2022-09-23T10:09:38.664Z,17.80
2022-09-23T10:12:22.976Z,17.80
2022-09-23T10:17:39.485Z,18.60
2022-09-23T10:20:14.857Z,18.60
2022-09-23T10:22:42.445Z,18.50
2022-09-23T10:25:17.066Z,19.40
2022-09-23T10:27:43.768Z,19.30
2022-09-23T10:30:13.772Z,19.40
2022-09-23T10:35:31.427Z,19.30
2022-09-23T10:40:46.689Z,19.70
2022-09-23T10:43:41.715Z,19.10
2022-09-23T10:46:16.638Z,20.10
2022-09-23T10:49:15.941Z,19.90
2022-09-23T10:52:13.405Z,20.90
2022-09-23T10:55:17.602Z,21.00
2022-09-23T11:04:17.582Z,22.20
2022-09-23T11:07:10.923Z,22.20
2022-09-23T11:09:58.781Z,22.70
2022-09-23T11:12:50.106Z,22.40
2022-09-23T11:15:32.921Z,21.50
2022-09-23T11:18:33.765Z,22.10
2022-09-23T11:24:49.581Z,22.50
2022-09-23T11:27:37.085Z,21.50
2022-09-23T11:30:19.170Z,21.50
2022-09-23T11:33:05.779Z,21.90
2022-09-23T11:35:53.359Z,22.20
2022-09-23T11:41:19.779Z,21.90
2022-09-23T11:43:51.499Z,22.00
2022-09-23T11:46:31.404Z,22.40
2022-09-23T11:49:12.275Z,22.70
2022-09-23T11:51:46.085Z,22.80
2022-09-23T11:54:21.703Z,22.40
2022-09-23T11:59:41.141Z,21.50
2022-09-23T12:02:30.577Z,23.00
2022-09-23T12:08:10.333Z,22.40
2022-09-23T12:10:46.291Z,22.30
2022-09-23T12:13:20.308Z,22.80
2022-09-23T12:16:22.429Z,23.50
2022-09-23T12:19:03.669Z,22.60
2022-09-23T12:21:51.293Z,22.30
2022-09-23T12:24:47.013Z,20.80
2022-09-23T12:27:39.452Z,21.10
2022-09-23T12:30:20.878Z,21.00
2022-09-23T12:32:47.920Z,20.60
2022-09-23T12:35:31.337Z,20.40
2022-09-23T12:38:00.558Z,20.10
2022-09-23T12:40:35.312Z,19.90
2022-09-23T12:43:02.752Z,19.70
2022-09-23T12:45:29.415Z,19.50
2022-09-23T12:47:56.217Z,19.30
2022-09-23T12:50:50.871Z,19.20
2022-09-23T12:53:56.009Z,19.40
2022-09-23T12:56:28.496Z,19.60
2022-09-23T12:59:20.577Z,19.90
2022-09-23T13:01:47.934Z,19.80
2022-09-23T13:04:55.770Z,19.20
2022-09-23T13:13:36.795Z,18.80
2022-09-23T13:16:22.472Z,18.80
2022-09-23T13:18:53.375Z,18.40
2022-09-23T13:21:42.854Z,18.50
2022-09-23T13:24:24.885Z,18.90
2022-09-23T13:26:56.641Z,19.00
2022-09-23T13:29:41.080Z,18.90
2022-09-23T13:32:13.214Z,18.80
2022-09-23T13:34:40.924Z,18.80
2022-09-23T13:37:29.546Z,18.40
2022-09-23T13:40:15.797Z,18.40
2022-09-23T13:42:47.386Z,18.30
2022-09-23T13:48:14.600Z,18.50
2022-09-23T13:50:48.904Z,18.30
2022-09-23T13:53:27.798Z,18.40
2022-09-23T13:56:13.293Z,18.40
2022-09-23T13:58:41.039Z,18.40
2022-09-23T14:01:22.534Z,18.50
2022-09-23T14:03:49.494Z,18.40
2022-09-23T14:06:16.297Z,18.20
2022-09-23T14:08:48.036Z,18.00
2022-09-23T14:11:17.106Z,18.10
2022-09-23T14:13:45.472Z,18.10
2022-09-23T14:16:14.238Z,18.10
2022-09-23T14:18:47.618Z,18.10
2022-09-23T14:21:31.249Z,18.20
2022-09-23T14:24:13.226Z,18.20
2022-09-23T14:26:42.449Z,18.00
2022-09-23T14:29:15.723Z,18.00
2022-09-23T14:32:04.059Z,18.00
2022-09-23T14:37:49.748Z,17.70
2022-09-23T14:40:20.717Z,17.60
2022-09-23T14:42:58.688Z,17.60
2022-09-23T14:45:32.165Z,17.70
2022-09-23T14:48:02.479Z,17.60
2022-09-23T14:50:31.145Z,17.70
2022-09-23T14:52:57.926Z,17.70
2022-09-23T14:55:28.850Z,17.40
2022-09-23T15:00:53.774Z,17.30
2022-09-23T15:06:08.948Z,17.20
2022-09-23T15:11:23.057Z,17.20
2022-09-23T15:16:40.178Z,17.10
2022-09-23T15:21:58.899Z,17.00
2022-09-23T15:24:46.018Z,17.00
2022-09-23T15:30:20.056Z,16.90
2022-09-23T15:35:33.857Z,16.70
2022-09-23T15:38:01.513Z,16.60
2022-09-23T15:40:33.809Z,16.70
2022-09-23T15:43:07.056Z,16.60
2022-09-23T15:45:41.720Z,16.60
2022-09-23T15:48:13.383Z,16.50
2022-09-23T15:50:40.867Z,16.40
2022-09-23T15:53:07.932Z,16.30
2022-09-23T15:55:34.730Z,16.30
2022-09-23T15:58:01.486Z,16.20
2022-09-23T16:00:28.265Z,16.20
2022-09-23T16:02:54.995Z,16.10
2022-09-23T16:08:24.329Z,16.00
2022-09-23T16:13:38.097Z,15.90
2022-09-23T16:16:05.064Z,15.80
2022-09-23T16:18:31.829Z,15.80
2022-09-23T16:20:58.577Z,15.80
2022-09-23T16:26:23.632Z,15.70
2022-09-23T16:28:52.923Z,15.70
2022-09-23T16:31:20.312Z,15.60
2022-09-23T16:33:48.764Z,15.50
2022-09-23T16:36:38.267Z,15.50
2022-09-23T16:39:08.644Z,15.40
2022-09-23T16:41:35.400Z,15.40
2022-09-23T16:44:04.222Z,15.30
2022-09-23T16:46:31.617Z,15.30
2022-09-23T16:48:59.744Z,15.20
2022-09-23T16:51:31.292Z,15.20
2022-09-23T16:53:58.991Z,15.10
2022-09-23T16:56:28.959Z,15.10
2022-09-23T16:58:56.780Z,15.00
2022-09-23T17:03:55.524Z,14.90
2022-09-23T17:06:22.222Z,14.90
2022-09-23T17:11:35.631Z,14.70
2022-09-23T17:14:02.368Z,14.70
2022-09-23T17:16:32.237Z,14.60
2022-09-23T17:18:59.652Z,14.60
2022-09-23T17:21:27.527Z,14.50
2022-09-23T17:23:55.224Z,14.40
2022-09-23T17:26:23.884Z,14.50
2022-09-23T17:28:52.018Z,14.40
2022-09-23T17:31:18.832Z,14.40
2022-09-23T17:33:45.631Z,14.30
2022-09-23T17:36:13.889Z,14.30
2022-09-23T17:38:43.343Z,14.30
2022-09-23T17:41:10.097Z,14.20
2022-09-23T17:43:37.768Z,14.20
2022-09-23T17:46:07.770Z,14.20
2022-09-23T17:48:36.555Z,14.10
2022-09-23T17:51:09.917Z,14.10
2022-09-23T17:53:38.713Z,14.10
2022-09-23T17:56:08.655Z,14.10
2022-09-23T18:01:26.048Z,14.00
2022-09-23T18:03:57.398Z,14.00
2022-09-23T18:06:27.278Z,14.00
2022-09-23T18:08:54.058Z,13.90
2022-09-23T18:14:14.765Z,13.80
2022-09-23T18:16:43.489Z,13.90
2022-09-23T18:19:12.673Z,13.80
2022-09-23T18:21:41.542Z,13.80
2022-09-23T18:26:56.094Z,13.80
2022-09-23T18:29:22.794Z,13.80
2022-09-23T18:31:49.605Z,13.70
2022-09-23T18:34:16.787Z,13.70
2022-09-23T18:36:44.397Z,13.70
2022-09-23T18:39:11.220Z,13.60
2022-09-23T18:44:24.991Z,13.50
2022-09-23T18:46:54.338Z,13.50
2022-09-23T18:49:21.111Z,13.50
2022-09-23T18:51:55.870Z,13.50
2022-09-23T18:57:15.111Z,13.40
2022-09-23T19:02:28.603Z,13.30
2022-09-23T19:07:23.614Z,13.20
2022-09-23T19:09:50.350Z,13.20
2022-09-23T19:15:07.315Z,13.10
2022-09-23T19:20:20.677Z,13.00
2022-09-23T19:25:36.220Z,13.00
2022-09-23T19:30:49.648Z,13.00
2022-09-23T19:33:16.389Z,12.90
2022-09-23T19:35:51.145Z,12.90
2022-09-23T19:38:19.334Z,12.90
2022-09-23T19:43:34.506Z,12.80
2022-09-23T19:48:48.050Z,12.80
2022-09-23T19:54:03.420Z,12.80
2022-09-23T19:56:31.618Z,12.80
2022-09-23T19:58:59.237Z,12.80
2022-09-23T20:01:27.966Z,12.70
2022-09-23T20:03:54.945Z,12.80
2022-09-23T20:06:22.343Z,12.80
2022-09-23T20:08:49.670Z,12.80
2022-09-23T20:11:19.523Z,12.70
2022-09-23T20:13:47.937Z,12.80
2022-09-23T20:16:17.427Z,12.70
2022-09-23T20:18:45.194Z,12.70
2022-09-23T20:21:14.751Z,12.70
2022-09-23T20:23:42.466Z,12.70
2022-09-23T20:28:56.934Z,12.60
2022-09-23T20:33:54.549Z,12.60
2022-09-23T20:36:21.284Z,12.60
2022-09-23T20:38:48.080Z,12.60
2022-09-23T20:41:14.782Z,12.60
2022-09-23T20:43:41.496Z,12.50
2022-09-23T20:46:08.906Z,12.50
2022-09-23T20:48:35.641Z,12.50
2022-09-23T20:51:04.045Z,12.50
2022-09-23T20:56:18.426Z,12.50
2022-09-23T20:58:45.161Z,12.50
2022-09-23T21:01:12.152Z,12.40
2022-09-23T21:03:41.375Z,12.40
2022-09-23T21:08:56.262Z,12.40
2022-09-23T21:14:10.161Z,12.30
2022-09-23T21:16:36.994Z,12.30
2022-09-23T21:19:03.852Z,12.30
2022-09-23T21:21:30.543Z,12.30
2022-09-23T21:24:17.503Z,12.30
2022-09-23T21:26:45.236Z,12.20
2022-09-23T21:29:11.969Z,12.20
2022-09-23T21:31:38.734Z,12.20
2022-09-23T21:36:54.560Z,12.10
2022-09-23T21:42:07.922Z,12.10
2022-09-23T21:44:34.668Z,12.10
2022-09-23T21:47:01.538Z,12.10
2022-09-23T21:49:28.341Z,12.00
2022-09-23T21:51:55.023Z,12.00
2022-09-23T21:54:21.750Z,12.00
2022-09-23T21:56:48.480Z,11.90
2022-09-23T21:59:15.226Z,11.90
2022-09-23T22:01:43.635Z,12.00
2022-09-23T22:04:19.336Z,11.90
2022-09-23T22:09:33.600Z,11.80
2022-09-23T22:14:47.005Z,11.80
2022-09-23T22:19:45.935Z,11.80
2022-09-23T22:22:14.829Z,11.80
2022-09-23T22:24:43.036Z,11.80
2022-09-23T22:27:10.952Z,11.80
2022-09-23T22:29:37.683Z,11.80
2022-09-23T22:32:09.750Z,11.80
2022-09-23T22:34:49.686Z,11.80
2022-09-23T22:37:21.863Z,11.80
2022-09-23T22:39:48.661Z,11.80
2022-09-23T22:42:15.381Z,11.80
2022-09-23T22:44:42.523Z,11.70
2022-09-23T22:47:10.429Z,11.80
2022-09-23T22:49:37.267Z,11.80
2022-09-23T22:52:06.373Z,11.80
2022-09-23T22:54:34.194Z,11.80
2022-09-23T22:57:03.792Z,11.80
2022-09-23T22:59:33.651Z,11.70
2022-09-23T23:02:01.473Z,11.80
2022-09-23T23:04:29.072Z,11.80
2022-09-23T23:06:56.968Z,11.80
2022-09-23T23:09:23.841Z,11.80
2022-09-23T23:11:50.724Z,11.80
2022-09-23T23:14:18.913Z,11.80
2022-09-23T23:16:46.567Z,11.80
2022-09-23T23:19:16.490Z,11.80
2022-09-23T23:21:44.435Z,11.80
2022-09-23T23:24:16.214Z,11.80
2022-09-23T23:26:42.988Z,11.80
2022-09-23T23:29:11.836Z,11.90
2022-09-23T23:31:38.949Z,11.80
2022-09-23T23:34:06.339Z,11.80
2022-09-23T23:36:33.095Z,11.90
2022-09-23T23:38:59.799Z,11.90
2022-09-23T23:41:27.910Z,11.90
2022-09-23T23:44:00.647Z,11.90
2022-09-23T23:46:30.455Z,11.90
2022-09-23T23:48:58.516Z,11.90
2022-09-23T23:51:27.047Z,11.90
2022-09-23T23:53:55.114Z,11.80
2022-09-23T23:56:24.466Z,11.80
